Terminal Aerodrome Forecast
Issued by NWS

Home | Current Version | Previous Version | Text Only | Print | Product List | Glossary On
Versions: 1 2 3 4 5 6 7 8 9 10 11 12 13 14 15 16 17 18 19 20 21 22 23 24
000
FTUS44 KTSA 201900 AAA
TAFBVO
TAF AMD
KBVO 201924Z 2019/2118 20006KT P6SM FEW035 SCT045
     FM210000 VRB03KT P6SM SCT250
     FM210500 00000KT 4SM BR SCT010
      TEMPO 2107/2111 1SM BR
     FM211100 36005KT P6SM VCTS SCT025CB BKN050
     FM211500 01007KT P6SM SCT250=

USA.gov is the U.S. government's official web portal to all federal, state and local government web resources and services.